createdAt,value
2017-10-26T00:00:28.273Z,99.90
2017-10-26T00:02:55.874Z,99.90
2017-10-26T00:05:24.202Z,99.90
2017-10-26T00:07:51.772Z,99.90
2017-10-26T00:10:19.368Z,99.90
2017-10-26T00:12:46.961Z,99.90
2017-10-26T00:15:14.518Z,99.90
2017-10-26T00:17:42.193Z,99.90
2017-10-26T00:20:09.715Z,99.90
2017-10-26T00:22:37.308Z,99.90
2017-10-26T00:25:04.878Z,99.90
2017-10-26T00:27:32.480Z,99.90
2017-10-26T00:30:00.080Z,99.90
2017-10-26T00:32:27.671Z,99.90
2017-10-26T00:34:55.264Z,99.90
2017-10-26T00:37:23.628Z,99.90
2017-10-26T00:39:51.231Z,99.90
2017-10-26T00:42:18.844Z,99.90
2017-10-26T00:44:46.461Z,99.90
2017-10-26T00:47:14.052Z,99.90
2017-10-26T00:49:41.648Z,99.90
2017-10-26T00:52:09.254Z,99.90
2017-10-26T00:54:37.616Z,99.90
2017-10-26T00:57:05.244Z,99.90
2017-10-26T00:59:32.914Z,99.90
2017-10-26T01:02:00.546Z,99.90
2017-10-26T01:04:28.190Z,99.90
2017-10-26T01:06:55.803Z,99.90
2017-10-26T01:09:23.429Z,99.90
2017-10-26T01:11:51.042Z,99.90
2017-10-26T01:14:18.636Z,99.90
2017-10-26T01:16:46.246Z,99.90
2017-10-26T01:19:13.869Z,99.90
2017-10-26T01:21:41.562Z,99.90
2017-10-26T01:24:09.911Z,99.90
2017-10-26T01:26:37.535Z,99.90
2017-10-26T01:29:05.116Z,99.90
2017-10-26T01:31:32.733Z,99.90
2017-10-26T01:34:00.350Z,99.90
2017-10-26T01:36:27.975Z,99.90
2017-10-26T01:38:55.589Z,99.90
2017-10-26T01:41:23.171Z,99.90
2017-10-26T01:43:50.805Z,99.90
2017-10-26T01:46:18.398Z,99.90
2017-10-26T01:48:45.943Z,99.90
2017-10-26T01:51:13.559Z,99.90
2017-10-26T01:53:41.179Z,99.90
2017-10-26T01:56:08.799Z,99.90
2017-10-26T01:58:36.427Z,99.90
2017-10-26T02:01:04.012Z,99.90
2017-10-26T02:03:31.642Z,99.90
2017-10-26T02:05:59.277Z,99.90
2017-10-26T02:08:26.951Z,99.90
2017-10-26T02:10:55.354Z,99.90
2017-10-26T02:13:22.998Z,99.90
2017-10-26T02:15:50.614Z,99.90
2017-10-26T02:18:18.249Z,99.90
2017-10-26T02:20:45.870Z,99.90
2017-10-26T02:23:13.508Z,99.90
2017-10-26T02:25:41.152Z,99.90
2017-10-26T02:28:08.744Z,99.90
2017-10-26T02:30:57.811Z,99.90
2017-10-26T02:33:25.434Z,99.90
2017-10-26T02:35:53.051Z,99.90
2017-10-26T02:38:20.664Z,99.90
2017-10-26T02:40:48.280Z,99.90
2017-10-26T02:43:15.890Z,99.90
2017-10-26T02:45:43.515Z,99.90
2017-10-26T02:48:11.146Z,99.90
2017-10-26T02:50:38.784Z,99.90
2017-10-26T02:53:06.361Z,99.90
2017-10-26T02:55:34.750Z,99.90
2017-10-26T02:58:03.195Z,99.90
2017-10-26T03:00:30.803Z,99.90
2017-10-26T03:02:58.431Z,99.90
2017-10-26T03:05:26.062Z,99.90
2017-10-26T03:07:53.738Z,99.90
2017-10-26T03:10:21.350Z,99.90
2017-10-26T03:12:48.972Z,99.90
2017-10-26T03:15:16.555Z,99.90
2017-10-26T03:17:44.983Z,99.90
2017-10-26T03:20:12.597Z,99.90
2017-10-26T03:22:40.167Z,99.90
2017-10-26T03:25:08.542Z,99.90
2017-10-26T03:27:36.926Z,99.90
2017-10-26T03:30:05.299Z,99.90
2017-10-26T03:32:33.679Z,99.90
2017-10-26T03:35:02.072Z,99.90
2017-10-26T03:37:29.659Z,99.90
2017-10-26T03:39:57.266Z,99.90
2017-10-26T03:42:25.090Z,99.90
2017-10-26T03:44:52.709Z,99.90
2017-10-26T03:47:20.340Z,99.90
2017-10-26T03:49:47.951Z,99.90
2017-10-26T03:52:15.562Z,99.90
2017-10-26T03:54:43.131Z,99.90
2017-10-26T03:57:10.742Z,99.90
2017-10-26T03:59:38.352Z,99.90
2017-10-26T04:02:05.972Z,99.90
2017-10-26T04:04:33.584Z,99.90
2017-10-26T04:07:01.200Z,99.90
2017-10-26T04:09:28.814Z,99.90
2017-10-26T04:11:56.438Z,99.90
2017-10-26T04:14:24.013Z,99.90
2017-10-26T04:16:51.665Z,99.90
2017-10-26T04:19:19.278Z,99.90
2017-10-26T04:21:46.902Z,99.90
2017-10-26T04:24:14.518Z,99.90
2017-10-26T04:26:42.149Z,99.90
2017-10-26T04:29:09.734Z,99.90
2017-10-26T04:31:37.353Z,99.90
2017-10-26T04:34:04.986Z,99.90
2017-10-26T04:36:32.647Z,99.90
2017-10-26T04:39:00.272Z,99.90
2017-10-26T04:41:27.878Z,99.90
2017-10-26T04:43:55.487Z,99.90
2017-10-26T04:46:23.086Z,99.90
2017-10-26T04:48:50.702Z,99.90
2017-10-26T04:51:18.275Z,99.90
2017-10-26T04:53:45.893Z,99.90
2017-10-26T04:56:13.542Z,99.90
2017-10-26T04:58:41.162Z,99.90
2017-10-26T05:01:08.797Z,99.90
2017-10-26T05:03:36.411Z,99.90
2017-10-26T05:06:03.984Z,99.90
2017-10-26T05:08:31.605Z,99.90
2017-10-26T05:10:59.263Z,99.90
2017-10-26T05:13:27.095Z,99.90
2017-10-26T05:15:54.707Z,99.90
2017-10-26T05:18:22.785Z,99.90
2017-10-26T05:20:52.082Z,99.90
2017-10-26T05:23:20.060Z,99.90
2017-10-26T05:25:48.209Z,99.90
2017-10-26T05:28:16.592Z,99.90
2017-10-26T05:30:44.786Z,99.90
2017-10-26T05:33:13.114Z,99.90
2017-10-26T05:35:41.505Z,99.90
2017-10-26T05:38:10.522Z,99.90
2017-10-26T05:40:38.754Z,99.90
2017-10-26T05:43:07.246Z,99.90
2017-10-26T05:45:35.513Z,99.90
2017-10-26T05:48:03.694Z,99.90
2017-10-26T05:50:31.819Z,99.90
2017-10-26T05:52:59.993Z,99.90
2017-10-26T05:55:28.132Z,99.90
2017-10-26T05:57:56.222Z,99.90
2017-10-26T06:00:24.275Z,99.90
2017-10-26T06:02:52.428Z,99.90
2017-10-26T06:05:21.376Z,99.90
2017-10-26T06:07:49.452Z,99.90
2017-10-26T06:10:17.777Z,99.90
2017-10-26T06:12:45.951Z,99.90
2017-10-26T06:15:14.202Z,99.90
2017-10-26T06:17:42.333Z,99.90
2017-10-26T06:20:10.498Z,99.90
2017-10-26T06:22:39.595Z,99.90
2017-10-26T06:25:08.457Z,99.90
2017-10-26T06:27:36.660Z,99.90
2017-10-26T06:30:05.411Z,99.90
2017-10-26T06:32:33.524Z,99.90
2017-10-26T06:35:01.432Z,99.90
2017-10-26T06:37:29.679Z,99.90
2017-10-26T06:39:57.913Z,99.90
2017-10-26T06:42:26.185Z,99.90
2017-10-26T06:44:54.521Z,99.90
2017-10-26T06:47:23.782Z,99.90
2017-10-26T06:49:52.083Z,99.90
2017-10-26T06:52:20.479Z,99.90
2017-10-26T06:54:48.700Z,99.90
2017-10-26T06:57:17.847Z,99.90
2017-10-26T06:59:46.099Z,99.90
2017-10-26T07:02:14.990Z,99.90
2017-10-26T07:04:43.954Z,99.90
2017-10-26T07:07:12.184Z,99.90
2017-10-26T07:09:40.441Z,99.90
2017-10-26T07:12:08.940Z,99.90
2017-10-26T07:14:37.154Z,99.90
2017-10-26T07:17:05.327Z,99.90
2017-10-26T07:19:33.546Z,99.90
2017-10-26T07:22:01.792Z,99.90
2017-10-26T07:24:30.775Z,99.90
2017-10-26T07:26:59.112Z,99.90
2017-10-26T07:29:27.367Z,99.90
2017-10-26T07:31:55.709Z,99.90
2017-10-26T07:34:23.922Z,99.90
2017-10-26T07:36:58.913Z,99.90
2017-10-26T07:39:27.969Z,99.90
2017-10-26T07:41:57.113Z,99.90
2017-10-26T07:44:25.453Z,99.90
2017-10-26T07:46:56.996Z,99.90
2017-10-26T07:49:25.145Z,99.90
2017-10-26T07:51:55.047Z,99.90
2017-10-26T07:54:23.361Z,99.90
2017-10-26T07:56:51.537Z,99.90
2017-10-26T07:59:19.576Z,99.90
2017-10-26T08:01:47.785Z,99.90
2017-10-26T08:04:15.957Z,99.90
2017-10-26T08:06:44.175Z,99.90
2017-10-26T08:09:12.447Z,99.90
2017-10-26T08:11:40.656Z,99.90
2017-10-26T08:14:08.755Z,99.90
2017-10-26T08:16:37.091Z,99.90
2017-10-26T08:19:05.307Z,99.90
2017-10-26T08:21:33.383Z,99.90
2017-10-26T08:24:01.594Z,99.90
2017-10-26T08:26:29.836Z,99.90
2017-10-26T08:28:58.148Z,99.90
2017-10-26T08:31:26.433Z,99.90
2017-10-26T08:33:54.664Z,99.90
2017-10-26T08:36:22.989Z,99.90
2017-10-26T08:38:51.663Z,99.90
2017-10-26T08:41:19.853Z,99.90
2017-10-26T08:43:47.979Z,99.90
2017-10-26T08:46:16.354Z,99.90
2017-10-26T08:48:44.530Z,99.90
2017-10-26T08:51:12.690Z,99.90
2017-10-26T08:53:40.885Z,99.90
2017-10-26T08:56:09.254Z,99.90
2017-10-26T08:58:37.585Z,99.90
2017-10-26T09:01:05.889Z,99.90
2017-10-26T09:03:34.188Z,99.90
2017-10-26T09:06:02.297Z,99.90
2017-10-26T09:08:30.693Z,99.90
2017-10-26T09:11:00.047Z,99.90
2017-10-26T09:13:28.248Z,99.90
2017-10-26T09:15:56.393Z,99.90
2017-10-26T09:18:24.562Z,99.90
2017-10-26T09:20:52.829Z,99.90
2017-10-26T09:23:22.178Z,99.90
2017-10-26T09:25:51.476Z,99.90
2017-10-26T09:28:19.615Z,99.90
2017-10-26T09:30:48.407Z,99.90
2017-10-26T09:33:22.517Z,99.90
2017-10-26T09:35:51.717Z,99.90
2017-10-26T09:38:19.968Z,99.90
2017-10-26T09:40:48.922Z,99.90
2017-10-26T09:43:17.141Z,99.90
2017-10-26T09:45:45.366Z,99.90
2017-10-26T09:48:13.651Z,99.90
2017-10-26T09:50:42.579Z,99.90
2017-10-26T09:53:10.826Z,99.90
2017-10-26T09:55:39.025Z,99.90
2017-10-26T09:58:07.230Z,99.90
2017-10-26T10:00:36.370Z,99.90
2017-10-26T10:03:04.537Z,99.90
2017-10-26T10:05:32.823Z,99.90
2017-10-26T10:08:00.949Z,99.90
2017-10-26T10:10:29.200Z,99.90
2017-10-26T10:12:57.325Z,99.90
2017-10-26T10:15:25.472Z,99.90
2017-10-26T10:17:54.471Z,99.90
2017-10-26T10:20:24.745Z,99.90
2017-10-26T10:22:53.827Z,99.90
2017-10-26T10:25:22.113Z,99.90
2017-10-26T10:27:50.288Z,99.90
2017-10-26T10:30:18.514Z,99.90
2017-10-26T10:32:47.791Z,99.90
2017-10-26T10:35:15.986Z,99.90
2017-10-26T10:37:44.312Z,99.90
2017-10-26T10:40:12.514Z,99.90
2017-10-26T10:42:41.486Z,99.90
2017-10-26T10:45:09.712Z,99.90
2017-10-26T10:47:37.885Z,99.90
2017-10-26T10:50:06.769Z,99.90
2017-10-26T10:52:34.944Z,99.90
2017-10-26T10:55:03.231Z,99.90
2017-10-26T10:57:32.629Z,99.90
2017-10-26T11:00:06.723Z,99.90
2017-10-26T11:02:34.867Z,99.90
2017-10-26T11:05:03.065Z,99.90
2017-10-26T11:07:31.780Z,99.90
2017-10-26T11:09:59.949Z,99.90
2017-10-26T11:12:28.226Z,99.90
2017-10-26T11:14:56.580Z,99.90
2017-10-26T11:17:25.844Z,99.90
2017-10-26T11:19:55.521Z,99.90
2017-10-26T11:22:26.993Z,99.90
2017-10-26T11:24:55.887Z,99.90
2017-10-26T11:27:24.046Z,99.90
2017-10-26T11:29:51.715Z,99.90
2017-10-26T11:32:19.355Z,99.90
2017-10-26T11:34:46.996Z,99.90
2017-10-26T11:37:14.679Z,99.90
2017-10-26T11:39:42.332Z,99.90
2017-10-26T11:42:09.960Z,99.90
2017-10-26T11:44:38.361Z,99.90
2017-10-26T11:47:05.987Z,99.90
2017-10-26T11:49:34.379Z,99.90
2017-10-26T11:52:02.015Z,99.90
2017-10-26T11:54:29.662Z,99.90
2017-10-26T11:56:57.306Z,99.90
2017-10-26T11:59:24.951Z,99.90
2017-10-26T12:01:52.603Z,99.90
2017-10-26T12:04:20.223Z,99.90
2017-10-26T12:06:47.871Z,99.60
2017-10-26T12:09:15.499Z,99.40
2017-10-26T12:11:43.203Z,99.80
2017-10-26T12:14:10.843Z,99.90
2017-10-26T12:16:38.484Z,99.90
2017-10-26T12:19:06.122Z,99.90
2017-10-26T12:21:34.489Z,99.90
2017-10-26T12:24:02.860Z,99.90
2017-10-26T12:26:30.506Z,99.90
2017-10-26T12:29:04.269Z,99.90
2017-10-26T12:31:33.138Z,99.90
2017-10-26T12:34:00.749Z,99.90
2017-10-26T12:36:28.409Z,99.50
2017-10-26T12:38:56.050Z,99.90
2017-10-26T12:41:23.694Z,99.10
2017-10-26T12:43:51.330Z,98.30
2017-10-26T12:46:18.957Z,97.30
2017-10-26T12:48:46.736Z,97.90
2017-10-26T12:51:14.370Z,97.80
2017-10-26T12:53:42.027Z,98.30
2017-10-26T12:56:09.677Z,98.50
2017-10-26T12:58:37.306Z,98.60
2017-10-26T13:01:04.957Z,96.40
2017-10-26T13:03:32.587Z,97.80
2017-10-26T13:06:00.235Z,97.00
2017-10-26T13:08:27.831Z,97.30
2017-10-26T13:10:55.429Z,96.90
2017-10-26T13:13:23.022Z,96.30
2017-10-26T13:15:52.662Z,95.70
2017-10-26T13:18:20.437Z,96.70
2017-10-26T13:20:48.057Z,97.30
2017-10-26T13:23:15.689Z,97.10
2017-10-26T13:25:43.346Z,96.50
2017-10-26T13:28:10.966Z,98.20
2017-10-26T13:30:38.551Z,97.10
2017-10-26T13:33:06.190Z,97.70
2017-10-26T13:35:33.819Z,99.00
2017-10-26T13:38:01.482Z,98.50
2017-10-26T13:40:29.127Z,99.50
2017-10-26T13:42:56.866Z,99.90
2017-10-26T13:45:24.779Z,98.80
2017-10-26T13:47:52.495Z,99.60
2017-10-26T13:50:20.137Z,99.90
2017-10-26T13:52:48.287Z,99.90
2017-10-26T13:55:17.369Z,99.90
2017-10-26T13:57:45.035Z,99.90
2017-10-26T14:00:12.644Z,99.90
2017-10-26T14:02:40.276Z,99.90
2017-10-26T14:05:08.929Z,99.90
2017-10-26T14:07:36.567Z,99.90
2017-10-26T14:10:05.060Z,99.90
2017-10-26T14:12:32.748Z,99.90
2017-10-26T14:15:00.372Z,99.90
2017-10-26T14:17:27.998Z,99.90
2017-10-26T14:19:55.626Z,99.90
2017-10-26T14:22:23.337Z,99.90
2017-10-26T14:24:50.958Z,99.90
2017-10-26T14:27:18.579Z,99.90
2017-10-26T14:29:46.222Z,99.90
2017-10-26T14:32:13.852Z,99.90
2017-10-26T14:34:41.528Z,99.90
2017-10-26T14:37:09.177Z,99.90
2017-10-26T14:39:36.814Z,99.90
2017-10-26T14:42:04.410Z,99.90
2017-10-26T14:44:32.036Z,99.90
2017-10-26T14:47:03.371Z,99.90
2017-10-26T14:49:31.774Z,99.90
2017-10-26T14:52:00.649Z,99.90
2017-10-26T14:54:28.358Z,99.90
2017-10-26T14:56:56.028Z,99.90
2017-10-26T14:59:23.667Z,99.90
2017-10-26T15:01:51.415Z,99.90
2017-10-26T15:04:19.294Z,99.90
2017-10-26T15:06:47.159Z,99.90
2017-10-26T15:09:15.942Z,99.90
2017-10-26T15:11:44.820Z,99.90
2017-10-26T15:14:12.513Z,99.90
2017-10-26T15:16:40.279Z,99.90
2017-10-26T15:19:21.411Z,99.90
2017-10-26T15:21:49.861Z,99.90
2017-10-26T15:24:18.662Z,99.90
2017-10-26T15:26:46.423Z,99.90
2017-10-26T15:29:14.619Z,99.90
2017-10-26T15:31:43.503Z,99.90
2017-10-26T15:34:12.806Z,99.90
2017-10-26T15:36:41.328Z,99.90
2017-10-26T15:39:11.537Z,99.90
2017-10-26T15:41:46.595Z,99.90
2017-10-26T15:44:14.765Z,99.90
2017-10-26T15:46:43.419Z,99.90
2017-10-26T15:49:12.644Z,99.90
2017-10-26T15:51:40.730Z,99.90
2017-10-26T15:54:08.841Z,99.90
2017-10-26T15:56:37.312Z,99.90
2017-10-26T15:59:05.023Z,99.90
2017-10-26T16:01:32.775Z,99.90
2017-10-26T16:04:08.055Z,99.90
2017-10-26T16:06:35.733Z,99.90
2017-10-26T16:09:04.275Z,99.90
2017-10-26T16:11:31.940Z,99.90
2017-10-26T16:13:59.622Z,99.90
2017-10-26T16:16:27.277Z,99.90
2017-10-26T16:18:54.954Z,99.90
2017-10-26T16:21:22.583Z,99.90
2017-10-26T16:23:50.238Z,99.90
2017-10-26T16:26:21.024Z,99.90
2017-10-26T16:28:48.653Z,99.90
2017-10-26T16:31:17.382Z,99.90
2017-10-26T16:33:47.301Z,99.90
2017-10-26T16:36:15.143Z,99.90
2017-10-26T16:38:51.389Z,99.90
2017-10-26T16:41:21.024Z,99.90
2017-10-26T16:43:48.685Z,99.90
2017-10-26T16:46:23.690Z,99.90
2017-10-26T16:48:51.350Z,99.90
2017-10-26T16:51:20.526Z,99.90
2017-10-26T16:53:48.224Z,99.90
2017-10-26T16:56:16.238Z,99.90
2017-10-26T16:58:44.253Z,99.90
2017-10-26T17:01:13.075Z,99.90
2017-10-26T17:03:40.939Z,99.90
2017-10-26T17:06:09.399Z,99.90
2017-10-26T17:08:37.290Z,99.90
2017-10-26T17:11:05.750Z,99.90
2017-10-26T17:13:33.492Z,99.90
2017-10-26T17:16:01.228Z,99.90
2017-10-26T17:18:28.958Z,99.90
2017-10-26T17:20:56.651Z,99.90
2017-10-26T17:23:24.710Z,99.90
2017-10-26T17:25:52.636Z,99.90
2017-10-26T17:28:20.741Z,99.90
2017-10-26T17:30:48.535Z,99.90
2017-10-26T17:33:21.075Z,99.90
2017-10-26T17:35:49.059Z,99.90
2017-10-26T17:38:21.197Z,99.90
2017-10-26T17:40:49.054Z,99.90
2017-10-26T17:43:17.682Z,99.90
2017-10-26T17:45:45.527Z,99.90
2017-10-26T17:48:16.731Z,99.90
2017-10-26T17:50:49.558Z,99.90
2017-10-26T17:53:17.274Z,99.90
2017-10-26T17:55:45.165Z,99.90
2017-10-26T17:58:12.966Z,99.90
2017-10-26T18:00:41.825Z,99.90
2017-10-26T18:03:09.538Z,99.90
2017-10-26T18:05:37.449Z,99.90
2017-10-26T18:08:09.776Z,99.90
2017-10-26T18:10:37.504Z,99.90
2017-10-26T18:13:05.282Z,99.90
2017-10-26T18:15:33.177Z,99.90
2017-10-26T18:18:01.060Z,99.90
2017-10-26T18:20:29.628Z,99.90
2017-10-26T18:23:01.769Z,99.90
2017-10-26T18:25:29.822Z,99.90
2017-10-26T18:27:58.044Z,99.90
2017-10-26T18:30:26.262Z,99.90
2017-10-26T18:32:54.334Z,99.90
2017-10-26T18:35:23.011Z,99.90
2017-10-26T18:37:51.090Z,99.90
2017-10-26T18:40:18.748Z,99.90
2017-10-26T18:42:47.051Z,99.90
2017-10-26T18:45:14.772Z,99.90
2017-10-26T18:47:42.732Z,99.90
2017-10-26T18:50:10.316Z,99.90
2017-10-26T18:52:40.841Z,99.90
2017-10-26T18:55:08.438Z,99.90
2017-10-26T18:57:36.055Z,99.90
2017-10-26T19:00:05.643Z,99.90
2017-10-26T19:02:33.330Z,99.90
2017-10-26T19:05:00.972Z,99.90
2017-10-26T19:07:28.594Z,99.90
2017-10-26T19:09:56.168Z,99.90
2017-10-26T19:12:24.884Z,99.90
2017-10-26T19:14:52.712Z,99.90
2017-10-26T19:17:20.544Z,99.90
2017-10-26T19:19:48.249Z,99.90
2017-10-26T19:22:17.658Z,99.90
2017-10-26T19:24:45.359Z,99.90
2017-10-26T19:27:13.280Z,99.90
2017-10-26T19:29:41.752Z,99.90
2017-10-26T19:32:10.822Z,99.90
2017-10-26T19:34:39.040Z,99.90
2017-10-26T19:37:06.910Z,99.90
2017-10-26T19:39:36.047Z,99.90
2017-10-26T19:42:04.443Z,99.90
2017-10-26T19:44:32.552Z,99.90
2017-10-26T19:47:01.298Z,99.90
2017-10-26T19:49:29.449Z,99.90
2017-10-26T19:51:57.699Z,99.90
2017-10-26T19:54:25.709Z,99.90
2017-10-26T19:56:54.044Z,99.90
2017-10-26T19:59:21.797Z,99.90
2017-10-26T20:01:50.314Z,99.90
2017-10-26T20:04:18.246Z,99.90
2017-10-26T20:06:46.110Z,99.90
2017-10-26T20:09:13.746Z,99.90
2017-10-26T20:11:42.519Z,99.90
2017-10-26T20:14:10.500Z,99.90
2017-10-26T20:16:40.662Z,99.90
2017-10-26T20:19:08.359Z,99.90
2017-10-26T20:21:36.333Z,99.90
2017-10-26T20:24:04.203Z,99.90
2017-10-26T20:26:32.930Z,99.90
2017-10-26T20:29:00.791Z,99.90
2017-10-26T20:31:28.745Z,99.90
2017-10-26T20:33:57.840Z,99.90
2017-10-26T20:36:25.970Z,99.90
2017-10-26T20:38:53.717Z,99.90
2017-10-26T20:41:22.171Z,99.90
2017-10-26T20:43:49.875Z,99.90
2017-10-26T20:46:18.848Z,99.90
2017-10-26T20:48:47.247Z,99.90
2017-10-26T20:51:22.409Z,99.90
2017-10-26T20:54:10.235Z,99.90
2017-10-26T20:56:43.417Z,99.90
2017-10-26T20:59:16.834Z,99.90
2017-10-26T21:01:50.100Z,99.90
2017-10-26T21:04:23.670Z,99.90
2017-10-26T21:06:51.445Z,99.90
2017-10-26T21:09:25.054Z,99.90
2017-10-26T21:11:58.259Z,99.90
2017-10-26T21:14:28.794Z,99.90
2017-10-26T21:16:56.532Z,99.90
2017-10-26T21:19:24.282Z,99.90
2017-10-26T21:21:52.127Z,99.90
2017-10-26T21:24:19.827Z,99.90
2017-10-26T21:26:47.501Z,99.90
2017-10-26T21:29:15.206Z,99.90
2017-10-26T21:31:43.114Z,99.90
2017-10-26T21:34:11.627Z,99.90
2017-10-26T21:36:39.313Z,99.90
2017-10-26T21:39:07.067Z,99.90
2017-10-26T21:41:34.803Z,99.90
2017-10-26T21:44:03.967Z,99.90
2017-10-26T21:46:31.753Z,99.90
2017-10-26T21:48:59.493Z,99.90
2017-10-26T21:51:27.183Z,99.90
2017-10-26T21:53:54.860Z,99.90
2017-10-26T21:56:23.079Z,99.90
2017-10-26T21:58:50.788Z,99.90
2017-10-26T22:01:18.409Z,99.90
2017-10-26T22:03:46.075Z,99.90
2017-10-26T22:06:13.755Z,99.90
2017-10-26T22:08:41.503Z,99.90
2017-10-26T22:11:09.224Z,99.90
2017-10-26T22:13:37.568Z,99.90
2017-10-26T22:16:05.180Z,99.90
2017-10-26T22:18:32.846Z,99.90
2017-10-26T22:21:00.515Z,99.90
2017-10-26T22:23:28.189Z,99.90
2017-10-26T22:25:55.861Z,99.90
2017-10-26T22:28:23.587Z,99.90
2017-10-26T22:30:51.303Z,99.90
2017-10-26T22:33:19.018Z,99.90
2017-10-26T22:35:46.715Z,99.90
2017-10-26T22:38:14.427Z,99.90
2017-10-26T22:40:42.044Z,99.90
2017-10-26T22:43:10.558Z,99.90
2017-10-26T22:45:38.256Z,99.90
2017-10-26T22:48:05.981Z,99.90
2017-10-26T22:50:33.691Z,99.90
2017-10-26T22:53:01.352Z,99.90
2017-10-26T22:55:29.097Z,99.90
2017-10-26T22:57:56.766Z,99.90
2017-10-26T23:00:24.449Z,99.90
2017-10-26T23:02:52.103Z,99.90
2017-10-26T23:05:19.771Z,99.90
2017-10-26T23:07:47.662Z,99.90
2017-10-26T23:10:15.308Z,99.90
2017-10-26T23:12:43.708Z,99.90
2017-10-26T23:15:11.456Z,99.90
2017-10-26T23:17:39.101Z,99.90
2017-10-26T23:20:06.754Z,99.90
2017-10-26T23:22:34.448Z,99.90
2017-10-26T23:25:02.211Z,99.90
2017-10-26T23:27:29.865Z,99.90
2017-10-26T23:29:57.543Z,99.90
2017-10-26T23:32:25.246Z,99.90
2017-10-26T23:34:52.895Z,99.90
2017-10-26T23:37:21.315Z,99.90
2017-10-26T23:39:48.971Z,99.90
2017-10-26T23:42:16.665Z,99.90
2017-10-26T23:44:44.299Z,99.90
2017-10-26T23:47:11.896Z,99.90
2017-10-26T23:49:39.508Z,99.90
2017-10-26T23:52:07.234Z,99.90
2017-10-26T23:54:34.982Z,99.90
2017-10-26T23:57:02.698Z,99.90
2017-10-26T23:59:30.438Z,99.90
